Barbados Meteorological Services
Auto gathered TAF list
Powered by Apparatus software
For Flight VEC321
Contact Number 1-(246)-535-0021/2/3/4/5/6
WEB: http://www.barbadosweather.org

**********************************************

2021/12/06 18:22
TAF TTPP 061600Z 0618/0718 10012KT 9999 SCT020
BECMG 0700/0702 09005KT 9999 FEW016
BECMG 0712/0714 11010KT 9999 SCT020


**********************************************
2021/12/06 18:31
TAF TBPB 061700Z 0618/0718 08022KT 9999 SCT018= TAF TVSA 061700Z 0618/0718 07015KT 9999 SCT018


**********************************************
2021/12/06 18:54
TAF SVMI 061600Z 0618/0718 09005KT 9999 SCT016 TX33/0618Z TN22/0708Z
BECMG 0616/0622 00000KT 9999 SCT016 SCT030


**********************************************
2021/12/06 18:54
TAF SVMG 061600Z 0618/0718 08011KT 9999 FEW016 TX34/0618Z TN22/0708Z
BECMG 0616/0622 08005KT 9999 SCT010 SCT080


**********************************************
2020/07/23 03:15
FTPR00 SPIM 230315 AAA TAF
AMD SPJC 230305Z 2303/2324 23003KT 7000 BKN018 TX19/2319Z TN15/2311Z
TEMPO 2310/2313 4500 BR
FM231500 27005KT 9999 OVC015
BECMG 2319/2321 18010KT


**********************************************
2021/12/06 18:44
TAF SKCL 061630Z 0618/0718 34008KT 9999 SCT020TCU
TEMPO 0619/0621 8000 VCSH
BECMG 0623/0701 VRB04KT FEW017 BKN120
TEMPO 0710/0714 8000 VCFG TX31/0618Z TN19/0711Z


**********************************************
2021/12/06 18:42
TAF SKCC 061630Z 0618/0718 36012KT 9999 SCT020
BECMG 0700/0702 VRB02KT TX32/0618Z TN23/0710Z


**********************************************
2021/12/06 18:42
TAF TAF SKBO 061630Z 0618/0718 14014KT 9999 FEW023
BECMG 0700/0702 VRB02KT TX21/0618Z TN08/0710Z


**********************************************
2021/12/06 12:03
TAF SCEL 061009Z 0612/0712 15005KT CAVOK TX31/0619Z TN12/0710Z
BECMG 0615/0617 20012KT
BECMG 0701/0703 15008KT
BECMG 0707/0709 6000 SCT008
TEMPO 0708/0710 2500 BR BKN004


**********************************************
2021/12/06 18:24
TAF SBPA 061500Z 0618/0718 12015KT 9999 BKN040 TN18/0708Z TX28/0718Z
BECMG 0621/0623 12010KT SCT025
BECMG 0703/0705 CAVOK
BECMG 0713/0715 11015KT 9999 SCT040
RMK PDY


**********************************************
2021/12/06 18:22
TAF SBEG 061620Z 0618/0718 07007KT 6000 RA BKN015 FEW025TCU TN23/0708Z TX28/0715Z
TEMPO 0618/0621 35015KT 4000 TSRA BKN015 FEW025CB
BECMG 0623/0701 35005KT 9999 NSW FEW025 FEW030TCU
TEMPO 0705/0709 30002KT 4000 RA BR BKN005
BECMG 0709/0711 SCT012
BECMG 0713/0715 13007KT 6000 RA BKN020 FEW025TCU
TEMPO 0715/0718 08015KT 4000 TSRA BKN015 FEW025CB
RMK PFV


**********************************************
2021/12/06 18:22
TAF SBBV 061620Z 0618/0718 07015KT 9999 BKN040 FEW045TCU TX33/0620Z TN25/0709Z
BECMG 0621/0623 09005KT SCT030 FEW045TCU
TEMPO 0700/0706 13015KT 4000 TSRA BKN012 FEW045CB
BECMG 0710/0712 10010KT FEW025
BECMG 0712/0714 SCT030
BECMG 0715/0717 08015KT BKN040 FEW045TCU
RMK PFV


**********************************************